Time;durP1;ratioP1;P1;durP2;ratioP2;P2;SDS_P1;SDS_P2;PMS_P1;PMS_P2;Temp;Humidity;BMP_temperature;BMP_pressure;BME280_temperature;BME280_humidity;BME280_pressure;Samples;Min_cycle;Max_cycle;Signal;HPM_P1;HPM_P2
2022/01/14 00:01:44;;;;;;;17.60;6.73;;;6.90;99.90;;;;;;6213100;23;20413;-50
2022/01/14 00:04:10;;;;;;;21.63;5.73;;;6.80;99.90;;;;;;6213395;23;20879;-51
2022/01/14 00:06:37;;;;;;;21.83;6.63;;;6.90;99.90;;;;;;6186648;23;20421;-50
2022/01/14 00:09:08;;;;;;;21.53;6.37;;;6.80;99.90;;;;;;6213028;23;20518;-61
2022/01/14 00:11:41;;;;;;;14.10;6.00;;;6.80;99.90;;;;;;6212956;23;20364;-51
2022/01/14 00:14:22;;;;;;;17.17;6.77;;;6.70;99.90;;;;;;6213462;23;20361;-51
2022/01/14 00:16:48;;;;;;;17.90;6.50;;;6.80;99.90;;;;;;6210218;23;20424;-51
2022/01/14 00:19:14;;;;;;;28.03;7.07;;;6.80;99.90;;;;;;6213464;23;20373;-51
2022/01/14 00:21:42;;;;;;;32.60;8.53;;;6.80;99.90;;;;;;6213166;23;20388;-50
2022/01/14 00:24:12;;;;;;;14.63;7.23;;;6.70;99.90;;;;;;6213084;23;20443;-52
2022/01/14 00:32:16;;;;;;;18.23;6.90;;;6.70;99.90;;;;;;6213442;23;20424;-51
2022/01/14 00:34:42;;;;;;;24.33;7.43;;;6.70;99.90;;;;;;6212873;23;20383;-50
2022/01/14 00:37:07;;;;;;;18.97;7.40;;;6.80;99.90;;;;;;6212949;23;20452;-52
2022/01/14 00:39:33;;;;;;;13.13;6.40;;;6.70;99.90;;;;;;6213010;23;20189;-51
2022/01/14 00:41:58;;;;;;;21.23;6.93;;;6.70;99.90;;;;;;6212722;23;20143;-50
2022/01/14 00:44:24;;;;;;;19.13;7.57;;;6.70;99.90;;;;;;6213086;23;20153;-51
2022/01/14 00:46:50;;;;;;;16.60;7.00;;;6.70;99.90;;;;;;6212980;23;20579;-50
2022/01/14 00:49:18;;;;;;;31.93;7.20;;;6.70;99.90;;;;;;6213197;23;20181;-50
2022/01/14 00:51:44;;;;;;;17.70;6.93;;;6.70;99.90;;;;;;6213299;23;20541;-51
2022/01/14 00:54:10;;;;;;;18.53;6.80;;;6.70;99.90;;;;;;6213348;23;20362;-51
2022/01/14 00:59:15;;;;;;;24.13;7.60;;;6.60;99.90;;;;;;6215918;23;20480;-51
2022/01/14 01:01:48;;;;;;;23.30;6.93;;;6.60;99.90;;;;;;6213118;23;20419;-51
2022/01/14 01:04:19;;;;;;;19.17;8.17;;;6.60;99.90;;;;;;6213056;23;20816;-50
2022/01/14 01:06:46;;;;;;;25.57;8.47;;;6.60;99.90;;;;;;6182566;23;20440;-52
2022/01/14 01:09:14;;;;;;;23.20;7.70;;;6.60;99.90;;;;;;6213005;23;20361;-51
2022/01/14 01:11:47;;;;;;;30.57;8.70;;;6.60;99.90;;;;;;6213675;23;20381;-51
2022/01/14 01:14:18;;;;;;;18.93;8.20;;;6.60;99.90;;;;;;6214951;23;20807;-51
2022/01/14 01:16:43;;;;;;;26.07;7.83;;;6.70;99.90;;;;;;6214798;23;20361;-51
2022/01/14 01:19:10;;;;;;;17.20;7.40;;;6.60;99.90;;;;;;6214610;23;20385;-51
2022/01/14 01:21:36;;;;;;;21.03;7.07;;;6.60;99.90;;;;;;6214649;23;20143;-51
2022/01/14 01:24:02;;;;;;;18.53;7.03;;;6.60;99.90;;;;;;6212177;23;20434;-50
2022/01/14 01:26:32;;;;;;;20.23;6.77;;;6.60;99.90;;;;;;6214071;23;20182;-52
2022/01/14 01:31:41;;;;;;;21.83;6.60;;;6.60;99.90;;;;;;6225104;23;20887;-50
2022/01/14 01:34:22;;;;;;;16.43;5.97;;;6.50;99.90;;;;;;6214687;23;20431;-51
2022/01/14 01:36:50;;;;;;;13.73;6.03;;;6.60;99.90;;;;;;6214653;23;20389;-51
2022/01/14 01:39:18;;;;;;;21.27;6.70;;;6.60;99.90;;;;;;6214444;23;20413;-51
2022/01/14 01:41:50;;;;;;;24.63;7.03;;;6.60;99.90;;;;;;6214731;23;20488;-51
2022/01/14 01:44:17;;;;;;;18.23;6.33;;;6.60;99.90;;;;;;6214301;23;20396;-51
2022/01/14 01:46:46;;;;;;;14.10;6.03;;;6.60;99.90;;;;;;6214498;23;20421;-50
2022/01/14 01:49:14;;;;;;;18.57;6.10;;;6.60;99.90;;;;;;6214583;23;20726;-51
2022/01/14 01:51:43;;;;;;;18.93;6.83;;;6.60;99.90;;;;;;6214535;23;20701;-51
2022/01/14 01:54:09;;;;;;;19.13;6.30;;;6.60;99.90;;;;;;6214598;23;20827;-49
2022/01/14 01:56:34;;;;;;;38.00;6.47;;;6.60;99.90;;;;;;6214605;23;20431;-50
2022/01/14 01:59:00;;;;;;;19.90;5.77;;;6.50;99.90;;;;;;6214222;23;20228;-51
2022/01/14 02:01:26;;;;;;;14.63;5.03;;;6.50;99.90;;;;;;6214488;23;20147;-50
2022/01/14 02:03:55;;;;;;;13.87;5.07;;;6.60;99.90;;;;;;6214242;23;20189;-51
2022/01/14 02:06:22;;;;;;;28.57;5.83;;;6.60;99.90;;;;;;6214692;23;20318;-51
2022/01/14 02:08:48;;;;;;;18.93;5.47;;;6.60;99.90;;;;;;6214305;23;21202;-51
2022/01/14 02:11:14;;;;;;;23.40;5.40;;;6.60;99.90;;;;;;6214525;23;20436;-51
2022/01/14 02:13:40;;;;;;;11.83;5.50;;;6.60;99.90;;;;;;6214175;23;20366;-51
2022/01/14 02:18:47;;;;;;;16.97;5.27;;;6.60;99.90;;;;;;6214691;23;20497;-51
2022/01/14 02:24:21;;;;;;;17.80;5.90;;;6.60;99.90;;;;;;6213984;23;20364;-51
2022/01/14 02:26:53;;;;;;;17.07;5.10;;;6.60;99.90;;;;;;6214209;23;20428;-51
2022/01/14 02:29:21;;;;;;;18.97;4.80;;;6.60;99.90;;;;;;6214131;23;20405;-51
2022/01/14 02:31:47;;;;;;;20.83;5.27;;;6.60;99.90;;;;;;6187830;23;20405;-51
2022/01/14 02:34:14;;;;;;;11.33;4.87;;;6.50;99.90;;;;;;6214072;23;20370;-51
2022/01/14 02:36:41;;;;;;;13.87;4.57;;;6.50;99.90;;;;;;6214204;23;20457;-51
2022/01/14 02:39:07;;;;;;;10.43;5.00;;;6.60;99.90;;;;;;6213771;23;20867;-51
2022/01/14 02:41:35;;;;;;;17.97;4.80;;;6.60;99.90;;;;;;6213750;23;20365;-50
2022/01/14 02:44:05;;;;;;;17.10;5.57;;;6.50;99.90;;;;;;6214052;23;20370;-51
2022/01/14 02:46:37;;;;;;;30.37;5.97;;;6.60;99.90;;;;;;6214006;23;20428;-51
2022/01/14 02:49:04;;;;;;;14.30;4.63;;;6.60;99.90;;;;;;6214323;23;20350;-51
2022/01/14 02:51:30;;;;;;;14.40;5.07;;;6.60;99.90;;;;;;6214065;23;20756;-51
2022/01/14 02:53:59;;;;;;;19.03;5.03;;;6.60;99.90;;;;;;6213852;23;20382;-51
2022/01/14 02:56:32;;;;;;;14.60;5.47;;;6.60;99.90;;;;;;6213845;23;20385;-50
2022/01/14 02:59:00;;;;;;;10.30;5.20;;;6.60;99.90;;;;;;6213775;23;20447;-51
2022/01/14 03:01:27;;;;;;;17.50;5.20;;;6.70;99.90;;;;;;6213882;23;20423;-51
2022/01/14 03:03:58;;;;;;;19.10;6.00;;;6.70;99.90;;;;;;6214006;23;20397;-51
2022/01/14 03:06:25;;;;;;;26.37;6.27;;;6.70;99.90;;;;;;6213910;23;20421;-51
2022/01/14 03:08:52;;;;;;;18.97;5.67;;;6.60;99.90;;;;;;6214139;23;20358;-50
2022/01/14 03:11:46;;;;;;;20.13;6.37;;;6.70;99.90;;;;;;6213764;23;20382;-50
2022/01/14 03:14:14;;;;;;;20.07;6.10;;;6.70;99.90;;;;;;6211940;23;20366;-51
2022/01/14 03:16:42;;;;;;;20.00;5.80;;;6.70;99.90;;;;;;6213832;23;20716;-51
2022/01/14 03:19:16;;;;;;;23.77;6.17;;;6.70;99.90;;;;;;6213654;23;20381;-51
2022/01/14 03:21:43;;;;;;;22.30;5.67;;;6.70;99.90;;;;;;6213839;23;20788;-51
2022/01/14 03:25:36;;;;;;;17.83;4.80;;;6.70;99.90;;;;;;6213422;23;20443;-51
2022/01/14 03:27:08;;;;;;;11.13;5.00;;;6.60;99.90;;;;;;6213984;23;20421;-51
2022/01/14 03:29:33;;;;;;;16.87;5.90;;;6.70;99.90;;;;;;6213728;23;21121;-51
2022/01/14 03:31:59;;;;;;;20.83;5.80;;;6.70;99.90;;;;;;6213268;23;20497;-51
2022/01/14 03:34:25;;;;;;;18.37;5.30;;;6.70;99.90;;;;;;6213597;23;20225;-50
2022/01/14 03:36:51;;;;;;;22.93;5.87;;;6.70;99.90;;;;;;6213197;23;20858;-51
2022/01/14 03:39:23;;;;;;;16.23;5.40;;;6.70;99.90;;;;;;6213547;23;20154;-51
2022/01/14 03:41:49;;;;;;;17.07;5.40;;;6.70;99.90;;;;;;6213799;23;21254;-50
2022/01/14 03:44:16;;;;;;;24.00;6.43;;;6.70;99.90;;;;;;6210975;23;20393;-50
2022/01/14 03:46:42;;;;;;;20.60;5.87;;;6.70;99.90;;;;;;6213771;23;20543;-50
2022/01/14 03:49:07;;;;;;;18.03;5.83;;;6.70;99.90;;;;;;6213589;23;20468;-52
2022/01/14 03:51:33;;;;;;;21.83;6.20;;;6.70;99.90;;;;;;6187189;23;20394;-51
2022/01/14 03:53:58;;;;;;;17.37;6.10;;;6.70;99.90;;;;;;6213222;23;20154;-52
2022/01/14 03:56:25;;;;;;;15.23;5.30;;;6.70;99.90;;;;;;6213280;23;20616;-51
2022/01/14 03:58:51;;;;;;;18.33;5.50;;;6.70;99.90;;;;;;6213204;23;20285;-51
2022/01/14 04:01:19;;;;;;;18.83;5.90;;;6.80;99.90;;;;;;6213642;23;20782;-51
2022/01/14 04:03:47;;;;;;;22.00;5.90;;;6.80;99.90;;;;;;6213464;23;20838;-51
2022/01/14 04:06:13;;;;;;;17.60;5.57;;;6.80;99.90;;;;;;6213409;23;20809;-50
2022/01/14 04:08:39;;;;;;;16.07;6.00;;;6.80;99.90;;;;;;6213059;23;20378;-50
2022/01/14 04:11:06;;;;;;;16.07;6.03;;;6.80;99.90;;;;;;6213407;23;20146;-50
2022/01/14 04:13:45;;;;;;;14.13;5.87;;;6.80;99.90;;;;;;6213293;23;20401;-50
2022/01/14 04:16:11;;;;;;;19.57;5.60;;;6.80;99.90;;;;;;6213299;23;20372;-51
2022/01/14 04:18:37;;;;;;;20.80;6.20;;;6.80;99.90;;;;;;6186852;23;20515;-50
2022/01/14 04:21:03;;;;;;;17.53;5.73;;;6.80;99.90;;;;;;6186616;23;20433;-52
2022/01/14 04:23:28;;;;;;;19.00;6.23;;;6.80;99.90;;;;;;6186699;23;20170;-51
2022/01/14 04:25:55;;;;;;;25.30;6.30;;;6.80;99.90;;;;;;6213593;23;20205;-50
2022/01/14 04:28:23;;;;;;;24.67;6.23;;;6.70;99.90;;;;;;6213381;23;20950;-51
2022/01/14 04:30:54;;;;;;;18.40;5.97;;;6.70;99.90;;;;;;6213430;23;20366;-51
2022/01/14 04:33:21;;;;;;;20.60;7.10;;;6.70;99.90;;;;;;6213267;23;20350;-51
2022/01/14 04:35:47;;;;;;;17.00;6.03;;;6.80;99.90;;;;;;6213442;23;20468;-51
2022/01/14 04:38:12;;;;;;;19.07;6.07;;;6.70;99.90;;;;;;6212530;23;20420;-50
2022/01/14 04:40:39;;;;;;;17.40;6.27;;;6.70;99.90;;;;;;6213349;23;20147;-51
2022/01/14 04:43:06;;;;;;;20.87;6.60;;;6.70;99.90;;;;;;6213172;23;20457;-50
2022/01/14 04:48:00;;;;;;;26.50;7.30;;;6.70;99.90;;;;;;6213099;23;20425;-52
2022/01/14 04:50:25;;;;;;;17.40;6.60;;;6.80;99.90;;;;;;6213295;23;20370;-50
2022/01/14 04:52:52;;;;;;;23.27;7.33;;;6.70;99.90;;;;;;6213072;23;20933;-51
2022/01/14 04:55:20;;;;;;;13.67;6.63;;;6.70;99.90;;;;;;6213138;23;20158;-51
2022/01/14 04:57:46;;;;;;;26.23;6.67;;;6.80;99.90;;;;;;6212997;23;21154;-50
2022/01/14 05:00:16;;;;;;;22.53;6.33;;;6.80;99.90;;;;;;6212905;23;20436;-50
2022/01/14 05:02:41;;;;;;;28.13;6.50;;;6.70;99.90;;;;;;6212967;23;20181;-50
2022/01/14 05:05:09;;;;;;;17.97;5.87;;;6.80;99.90;;;;;;6209094;23;20394;-51
2022/01/14 05:07:35;;;;;;;16.87;5.53;;;6.80;99.90;;;;;;6213315;23;20185;-51
2022/01/14 05:12:33;;;;;;;16.90;5.50;;;6.70;99.90;;;;;;6223479;23;20362;-51
2022/01/14 05:14:59;;;;;;;17.40;5.73;;;6.70;99.90;;;;;;6212913;23;20704;-55
2022/01/14 05:17:25;;;;;;;12.13;4.30;;;6.70;99.90;;;;;;6212889;23;20370;-51
2022/01/14 05:19:51;;;;;;;17.23;5.63;;;6.70;99.90;;;;;;6212711;23;20166;-51
2022/01/14 05:22:17;;;;;;;11.47;5.30;;;6.70;99.90;;;;;;6213333;23;20826;-51
2022/01/14 05:24:44;;;;;;;15.13;4.87;;;6.80;99.90;;;;;;6213010;23;20381;-51
2022/01/14 05:27:09;;;;;;;18.23;4.90;;;6.70;99.90;;;;;;6213345;23;20425;-51
2022/01/14 05:29:35;;;;;;;13.43;5.30;;;6.70;99.90;;;;;;6212528;23;20480;-51
2022/01/14 05:32:03;;;;;;;11.20;4.50;;;6.70;99.90;;;;;;6212977;23;20151;-51
2022/01/14 05:34:33;;;;;;;14.40;5.10;;;6.70;99.90;;;;;;6212813;23;20143;-51
2022/01/14 05:37:00;;;;;;;12.77;5.03;;;6.70;99.90;;;;;;6186462;23;20403;-50
2022/01/14 05:39:26;;;;;;;13.27;5.93;;;6.70;99.90;;;;;;6213256;23;20406;-50
2022/01/14 05:41:52;;;;;;;14.57;5.47;;;6.70;99.90;;;;;;6212886;23;20374;-50
2022/01/14 05:44:18;;;;;;;14.70;4.13;;;6.70;99.90;;;;;;6213208;23;20166;-51
2022/01/14 05:46:45;;;;;;;15.40;4.80;;;6.70;99.90;;;;;;6212888;23;20425;-49
2022/01/14 05:49:11;;;;;;;9.37;5.03;;;6.70;99.90;;;;;;6212673;23;20440;-51
2022/01/14 05:51:37;;;;;;;18.57;5.13;;;6.60;99.90;;;;;;6212930;23;20378;-51
2022/01/14 05:54:02;;;;;;;15.43;4.90;;;6.60;99.90;;;;;;6212769;23;20277;-51
2022/01/14 05:56:28;;;;;;;15.93;4.87;;;6.70;99.90;;;;;;6213022;23;20190;-51
2022/01/14 05:58:53;;;;;;;21.90;4.70;;;6.70;99.90;;;;;;6187927;23;20206;-51
2022/01/14 06:01:20;;;;;;;17.37;4.60;;;6.70;99.90;;;;;;6214750;23;20209;-51
2022/01/14 06:03:46;;;;;;;17.20;4.70;;;6.70;99.90;;;;;;6214436;23;20143;-50
2022/01/14 06:06:11;;;;;;;14.10;4.60;;;6.70;99.90;;;;;;6214652;23;20378;-50
2022/01/14 06:08:37;;;;;;;17.03;4.60;;;6.70;99.90;;;;;;6214288;23;20143;-51
2022/01/14 06:11:02;;;;;;;21.53;4.80;;;6.60;99.90;;;;;;6214710;23;20150;-51
2022/01/14 06:13:28;;;;;;;13.13;5.33;;;6.60;99.90;;;;;;6214169;23;20166;-51
2022/01/14 06:15:54;;;;;;;24.63;4.70;;;6.60;99.90;;;;;;6214485;23;20166;-51
2022/01/14 06:18:20;;;;;;;12.73;4.00;;;6.60;99.90;;;;;;6214297;23;20185;-51
2022/01/14 06:20:46;;;;;;;31.73;4.80;;;6.50;99.90;;;;;;6214444;23;20390;-51
2022/01/14 06:23:13;;;;;;;19.90;4.63;;;6.50;99.90;;;;;;6214410;23;20182;-51
2022/01/14 06:25:39;;;;;;;12.43;4.80;;;6.50;99.90;;;;;;6214452;23;20432;-51
2022/01/14 06:28:05;;;;;;;12.70;4.40;;;6.50;99.90;;;;;;6214179;23;20425;-51
2022/01/14 06:30:30;;;;;;;19.20;4.67;;;6.50;99.90;;;;;;6214369;23;20147;-51
2022/01/14 06:32:56;;;;;;;23.80;5.83;;;6.50;99.90;;;;;;6214225;23;20143;-51
2022/01/14 06:35:22;;;;;;;19.03;4.57;;;6.50;99.90;;;;;;6214573;23;20154;-51
2022/01/14 06:37:49;;;;;;;23.17;5.97;;;6.50;99.90;;;;;;6214184;23;20464;-51
2022/01/14 06:40:15;;;;;;;27.97;6.17;;;6.40;99.90;;;;;;6214265;23;20362;-51
2022/01/14 06:42:40;;;;;;;32.00;5.37;;;6.40;99.90;;;;;;6214424;23;20377;-51
2022/01/14 06:45:07;;;;;;;19.13;4.53;;;6.40;99.90;;;;;;6214253;23;20432;-51
2022/01/14 06:47:33;;;;;;;25.33;4.90;;;6.40;99.90;;;;;;6214108;23;20182;-50
2022/01/14 06:49:59;;;;;;;24.07;4.80;;;6.40;99.90;;;;;;6214551;23;20472;-48
2022/01/14 06:52:24;;;;;;;23.60;4.23;;;6.40;99.90;;;;;;6210798;23;20159;-48
2022/01/14 06:54:50;;;;;;;23.67;4.13;;;6.40;99.90;;;;;;6214222;23;20147;-48
2022/01/14 06:57:16;;;;;;;27.10;4.97;;;6.40;99.90;;;;;;6214204;23;20143;-48
2022/01/14 06:59:41;;;;;;;23.63;5.07;;;6.40;99.90;;;;;;6213745;23;20727;-48
2022/01/14 07:02:08;;;;;;;26.80;5.00;;;6.40;99.90;;;;;;6213843;23;20146;-48
2022/01/14 07:04:34;;;;;;;20.13;5.13;;;6.40;99.90;;;;;;6213527;23;20147;-48
2022/01/14 07:06:59;;;;;;;24.30;5.60;;;6.40;99.90;;;;;;6213713;23;20433;-48
2022/01/14 07:09:25;;;;;;;27.93;5.73;;;6.40;99.90;;;;;;6213068;23;20416;-48
2022/01/14 07:11:57;;;;;;;19.97;4.97;;;6.40;99.90;;;;;;6213843;23;20576;-48
2022/01/14 07:14:23;;;;;;;23.63;5.40;;;6.40;99.90;;;;;;6214146;23;20362;-48
2022/01/14 07:16:49;;;;;;;21.40;4.27;;;6.40;99.90;;;;;;6213723;23;20412;-48
2022/01/14 07:19:16;;;;;;;22.03;4.40;;;6.40;99.90;;;;;;6213317;23;20449;-48
2022/01/14 07:21:42;;;;;;;16.50;4.57;;;6.50;99.90;;;;;;6213329;23;20161;-48
2022/01/14 07:24:09;;;;;;;17.77;4.30;;;6.50;99.90;;;;;;6212733;23;20457;-48
2022/01/14 07:26:35;;;;;;;14.87;4.47;;;6.40;99.90;;;;;;6213499;23;20182;-48
2022/01/14 07:29:01;;;;;;;16.20;4.73;;;6.40;99.90;;;;;;6213275;23;20786;-48
2022/01/14 07:31:26;;;;;;;24.87;5.43;;;6.50;99.90;;;;;;6213490;23;20222;-48
2022/01/14 07:33:52;;;;;;;16.93;4.70;;;6.50;99.90;;;;;;6213546;23;20250;-48
2022/01/14 07:36:17;;;;;;;20.07;5.50;;;6.50;99.90;;;;;;6213628;23;20596;-48
2022/01/14 07:38:43;;;;;;;32.03;5.47;;;6.50;99.90;;;;;;6213365;23;20150;-48
2022/01/14 07:41:08;;;;;;;20.50;5.17;;;6.50;99.90;;;;;;6213400;23;20147;-48
2022/01/14 07:43:35;;;;;;;16.33;5.10;;;6.50;99.90;;;;;;6213256;23;20166;-48
2022/01/14 07:46:02;;;;;;;20.67;4.83;;;6.50;99.90;;;;;;6212975;23;20228;-48
2022/01/14 07:48:28;;;;;;;21.30;4.83;;;6.50;99.90;;;;;;6213050;23;20851;-48
2022/01/14 07:50:53;;;;;;;22.20;5.73;;;6.50;99.90;;;;;;6213032;23;20381;-48
2022/01/14 07:53:19;;;;;;;29.43;5.33;;;6.50;99.90;;;;;;6212829;23;20149;-48
2022/01/14 07:55:46;;;;;;;28.43;5.50;;;6.50;99.90;;;;;;6213348;23;20165;-48
2022/01/14 07:58:13;;;;;;;31.07;6.30;;;6.50;99.90;;;;;;6186830;23;20197;-48
2022/01/14 08:00:40;;;;;;;23.87;6.17;;;6.50;99.90;;;;;;6212801;23;20524;-48
2022/01/14 08:03:07;;;;;;;25.83;5.17;;;6.50;99.90;;;;;;6213266;23;20382;-48
2022/01/14 08:05:33;;;;;;;26.50;5.07;;;6.50;99.90;;;;;;6209694;23;20369;-48
2022/01/14 08:08:03;;;;;;;28.40;5.20;;;6.50;99.90;;;;;;6212202;23;20508;-48
2022/01/14 08:10:29;;;;;;;19.57;5.40;;;6.60;99.90;;;;;;6212806;23;20362;-49
2022/01/14 08:12:55;;;;;;;19.43;5.20;;;6.60;99.90;;;;;;6212316;23;20906;-48
2022/01/14 08:15:20;;;;;;;17.93;5.17;;;6.60;99.90;;;;;;6211715;23;20556;-49
2022/01/14 08:17:46;;;;;;;24.73;4.93;;;6.60;99.90;;;;;;6212374;23;20155;-48
2022/01/14 08:20:11;;;;;;;18.57;4.43;;;6.60;99.90;;;;;;6212356;23;20158;-49
2022/01/14 08:22:37;;;;;;;17.33;4.77;;;6.60;99.90;;;;;;6212475;23;20151;-49
2022/01/14 08:25:04;;;;;;;23.47;6.37;;;6.60;99.90;;;;;;6212430;23;20143;-49
2022/01/14 08:27:30;;;;;;;26.90;6.53;;;6.60;99.90;;;;;;6212199;23;20189;-49
2022/01/14 08:29:56;;;;;;;24.63;5.13;;;6.60;99.90;;;;;;6212323;23;20366;-49
2022/01/14 08:32:22;;;;;;;29.67;5.00;;;6.70;99.90;;;;;;6212162;23;20221;-49
2022/01/14 08:34:48;;;;;;;17.50;4.60;;;6.70;99.90;;;;;;6185861;23;20410;-49
2022/01/14 08:37:14;;;;;;;14.80;5.40;;;6.70;99.90;;;;;;6212501;23;20503;-50
2022/01/14 08:39:39;;;;;;;20.43;4.60;;;6.70;99.90;;;;;;6210132;23;20385;-49
2022/01/14 08:42:08;;;;;;;20.00;4.90;;;6.70;99.90;;;;;;6212882;23;20577;-49
2022/01/14 08:44:36;;;;;;;23.00;5.20;;;6.70;99.90;;;;;;6212598;23;20204;-49
2022/01/14 08:47:02;;;;;;;26.80;5.20;;;6.70;99.90;;;;;;6212576;23;20417;-49
2022/01/14 08:49:28;;;;;;;19.80;5.50;;;6.70;99.90;;;;;;6212657;23;20378;-49
2022/01/14 08:51:53;;;;;;;26.23;5.00;;;6.70;99.90;;;;;;6213025;23;20376;-49
2022/01/14 08:54:19;;;;;;;24.80;4.90;;;6.70;99.90;;;;;;6212413;23;20228;-52
2022/01/14 08:56:45;;;;;;;27.00;5.90;;;6.60;99.90;;;;;;6212580;23;20229;-51
2022/01/14 08:59:10;;;;;;;33.17;6.47;;;6.70;99.90;;;;;;6212107;23;20210;-52
2022/01/14 09:01:40;;;;;;;36.77;5.70;;;6.70;99.90;;;;;;6212163;23;20217;-52
2022/01/14 09:04:05;;;;;;;22.33;6.27;;;6.70;99.90;;;;;;6212082;23;20146;-52
2022/01/14 09:06:31;;;;;;;16.87;5.37;;;6.70;99.90;;;;;;6212102;23;20418;-51
2022/01/14 09:08:57;;;;;;;20.67;5.80;;;6.70;99.90;;;;;;6212368;23;20151;-53
2022/01/14 09:11:22;;;;;;;24.40;6.37;;;6.80;99.90;;;;;;6212057;23;20139;-52
2022/01/14 09:13:48;;;;;;;27.70;7.07;;;6.70;99.90;;;;;;6211943;23;20154;-51
2022/01/14 09:16:13;;;;;;;27.40;6.33;;;6.70;99.90;;;;;;6212155;23;20592;-51
2022/01/14 09:18:39;;;;;;;11.63;5.03;;;6.70;99.90;;;;;;6212163;23;20147;-52
2022/01/14 09:21:05;;;;;;;28.87;5.77;;;6.70;99.90;;;;;;6212215;23;20629;-52
2022/01/14 09:23:33;;;;;;;25.27;5.90;;;6.70;99.90;;;;;;6185192;23;20568;-52
2022/01/14 09:25:58;;;;;;;25.67;6.00;;;6.70;99.90;;;;;;6185412;23;20216;-51
2022/01/14 09:28:24;;;;;;;36.07;8.00;;;6.60;99.90;;;;;;6185239;23;20445;-52
2022/01/14 09:30:49;;;;;;;35.20;7.30;;;6.70;99.90;;;;;;6211963;23;20671;-51
2022/01/14 09:33:17;;;;;;;34.33;7.93;;;6.70;99.90;;;;;;6212711;23;20143;-51
2022/01/14 09:35:46;;;;;;;21.40;7.27;;;6.70;99.90;;;;;;6214630;23;20139;-51
2022/01/14 09:38:12;;;;;;;29.07;7.50;;;6.70;99.90;;;;;;6214105;23;20395;-51
2022/01/14 09:40:42;;;;;;;28.13;7.20;;;6.70;99.90;;;;;;6213934;23;20804;-51
2022/01/14 09:43:08;;;;;;;23.87;6.80;;;6.70;99.90;;;;;;6213745;23;20143;-52
2022/01/14 09:45:34;;;;;;;23.00;6.90;;;6.70;99.90;;;;;;6213966;23;20389;-51
2022/01/14 09:48:00;;;;;;;33.93;6.70;;;6.70;99.90;;;;;;6213956;23;20443;-53
2022/01/14 09:50:26;;;;;;;24.10;6.63;;;6.70;99.90;;;;;;6214083;23;20362;-51
2022/01/14 09:52:52;;;;;;;27.00;6.57;;;6.70;99.90;;;;;;6213941;23;20162;-51
2022/01/14 09:55:19;;;;;;;21.90;6.30;;;6.70;99.90;;;;;;6213901;23;20154;-51
2022/01/14 09:57:45;;;;;;;18.23;6.17;;;6.70;99.90;;;;;;6213896;23;20376;-48
2022/01/14 10:00:11;;;;;;;29.67;6.77;;;6.80;99.90;;;;;;6213725;23;20823;-48
2022/01/14 10:02:40;;;;;;;25.97;7.17;;;6.80;99.90;;;;;;6214225;23;20273;-48
2022/01/14 10:05:08;;;;;;;21.10;6.40;;;6.80;99.90;;;;;;6214463;23;20413;-49
2022/01/14 10:07:34;;;;;;;17.93;5.83;;;6.70;99.90;;;;;;6213571;23;20420;-48
2022/01/14 10:10:01;;;;;;;26.17;5.90;;;6.70;99.90;;;;;;6213704;23;20392;-48
2022/01/14 10:12:33;;;;;;;23.87;5.87;;;6.70;99.90;;;;;;6213474;23;20538;-48
2022/01/14 10:15:06;;;;;;;27.20;6.53;;;6.80;99.90;;;;;;6213556;23;20385;-49
2022/01/14 10:17:37;;;;;;;28.80;5.30;;;6.80;99.90;;;;;;6214086;23;20366;-48
2022/01/14 10:20:05;;;;;;;22.70;6.43;;;6.80;99.90;;;;;;6213644;23;20860;-48
2022/01/14 10:22:34;;;;;;;25.80;5.33;;;6.80;99.90;;;;;;6213895;23;20846;-48
2022/01/14 10:25:09;;;;;;;21.63;4.30;;;6.90;99.90;;;;;;6213775;23;20382;-48
2022/01/14 10:27:43;;;;;;;16.83;5.00;;;6.90;99.90;;;;;;6211821;23;20870;-48
2022/01/14 10:30:28;;;;;;;19.80;5.40;;;6.90;99.90;;;;;;6213524;23;20380;-48
2022/01/14 10:32:56;;;;;;;22.87;5.17;;;6.80;99.90;;;;;;6186702;23;20385;-46
2022/01/14 10:35:24;;;;;;;13.07;4.60;;;6.90;99.90;;;;;;6186930;23;20448;-46
2022/01/14 10:37:50;;;;;;;11.77;4.90;;;6.90;99.90;;;;;;6213573;23;20896;-46
2022/01/14 10:40:20;;;;;;;16.40;4.97;;;6.90;99.90;;;;;;6213410;23;20555;-46
2022/01/14 10:42:50;;;;;;;12.73;4.80;;;6.80;99.90;;;;;;6187017;23;20398;-47
2022/01/14 10:45:27;;;;;;;19.83;6.23;;;6.80;99.90;;;;;;6213406;23;20472;-46
2022/01/14 10:47:57;;;;;;;12.70;5.47;;;6.90;99.90;;;;;;6213560;23;20831;-46
2022/01/14 10:50:36;;;;;;;17.63;5.00;;;6.90;99.90;;;;;;6213383;23;20430;-46
2022/01/14 10:53:10;;;;;;;18.53;5.33;;;7.00;99.90;;;;;;6213486;23;20820;-49
2022/01/14 10:55:43;;;;;;;17.03;5.00;;;7.00;99.90;;;;;;6213583;23;20365;-49
2022/01/14 10:58:33;;;;;;;18.23;4.87;;;7.00;99.90;;;;;;6213930;23;20702;-48
2022/01/14 11:01:07;;;;;;;12.43;5.40;;;7.00;99.90;;;;;;6211843;23;20410;-49
2022/01/14 11:03:37;;;;;;;9.17;4.43;;;6.90;99.90;;;;;;6213779;23;20362;-49
2022/01/14 11:06:20;;;;;;;12.03;4.37;;;6.90;99.90;;;;;;6213449;23;20362;-47
2022/01/14 11:08:48;;;;;;;17.13;5.40;;;7.00;99.90;;;;;;6213442;23;20479;-46
2022/01/14 11:11:15;;;;;;;21.63;6.17;;;7.00;99.90;;;;;;6213666;23;20384;-46
2022/01/14 11:13:40;;;;;;;13.07;4.70;;;7.00;99.90;;;;;;6213663;23;20730;-46
2022/01/14 11:16:06;;;;;;;14.00;5.33;;;7.00;99.90;;;;;;6186658;23;20389;-46
2022/01/14 11:18:32;;;;;;;9.90;4.53;;;7.00;99.90;;;;;;6213207;23;20625;-46
2022/01/14 11:23:41;;;;;;;14.90;3.90;;;7.20;99.90;;;;;;6212936;23;20208;-46
2022/01/14 11:26:08;;;;;;;12.13;4.30;;;7.20;99.90;;;;;;6186417;23;20386;-47
2022/01/14 11:28:38;;;;;;;12.77;4.30;;;7.20;99.90;;;;;;6212840;23;20612;-46
2022/01/14 11:31:29;;;;;;;7.93;3.83;;;7.20;99.90;;;;;;6209318;23;20362;-46
2022/01/14 11:33:57;;;;;;;9.70;3.50;;;7.10;99.90;;;;;;6212631;23;20435;-46
2022/01/14 11:36:23;;;;;;;15.55;5.55;;;7.10;99.90;;;;;;6211256;23;20361;-46
2022/01/14 11:38:48;;;;;;;11.10;4.20;;;7.20;99.90;;;;;;6212300;23;20139;-48
2022/01/14 11:41:19;;;;;;;10.03;3.73;;;7.20;99.90;;;;;;6210085;23;20712;-46
2022/01/14 11:43:54;;;;;;;9.77;4.00;;;7.20;99.90;;;;;;6212948;23;20613;-47
2022/01/14 11:46:32;;;;;;;8.60;3.63;;;7.30;99.90;;;;;;6211634;23;20361;-48
2022/01/14 11:48:58;;;;;;;10.10;4.10;;;7.30;99.90;;;;;;6212055;23;20361;-48
2022/01/14 11:51:24;;;;;;;6.80;3.60;;;7.30;99.90;;;;;;6211359;23;20385;-48
2022/01/14 11:53:54;;;;;;;10.13;3.87;;;7.30;99.90;;;;;;6211657;23;20384;-48
2022/01/14 11:56:32;;;;;;;7.77;3.27;;;7.30;99.90;;;;;;6210914;23;20304;-48
2022/01/14 11:59:37;;;;;;;11.27;3.77;;;7.30;99.90;;;;;;6211855;23;20440;-45
2022/01/14 12:02:26;;;;;;;6.60;3.50;;;7.30;99.90;;;;;;6210546;23;20393;-45
2022/01/14 12:05:14;;;;;;;4.13;3.17;;;7.40;99.90;;;;;;6210480;23;20376;-46
2022/01/14 12:08:01;;;;;;;7.10;3.10;;;7.40;99.90;;;;;;6212062;23;20791;-46
2022/01/14 12:10:35;;;;;;;6.40;3.10;;;7.50;99.90;;;;;;6211659;23;20386;-46
2022/01/14 12:13:47;;;;;;;7.30;3.40;;;7.40;99.90;;;;;;6211792;23;20389;-46
2022/01/14 12:16:35;;;;;;;7.40;2.70;;;7.40;99.90;;;;;;6211600;23;20817;-46
2022/01/14 12:19:03;;;;;;;4.40;2.57;;;7.40;99.90;;;;;;6211522;23;20366;-46
2022/01/14 12:21:40;;;;;;;14.00;3.10;;;7.50;99.90;;;;;;6211907;23;20369;-47
2022/01/14 12:24:14;;;;;;;6.90;2.90;;;7.50;99.90;;;;;;6210787;23;20369;-47
2022/01/14 12:26:41;;;;;;;5.00;3.27;;;7.50;99.90;;;;;;6211830;23;20878;-47
2022/01/14 12:29:12;;;;;;;3.80;2.90;;;7.50;99.90;;;;;;6210897;23;20358;-46
2022/01/14 12:32:03;;;;;;;7.57;2.90;;;7.50;99.90;;;;;;6212340;23;20362;-47
2022/01/14 12:34:33;;;;;;;7.23;3.20;;;7.50;99.90;;;;;;6212850;23;20711;-47
2022/01/14 12:36:59;;;;;;;10.03;3.20;;;7.50;99.90;;;;;;6212721;23;20362;-47
2022/01/14 12:39:25;;;;;;;4.73;3.20;;;7.50;99.90;;;;;;6213107;23;20404;-47
2022/01/14 12:41:52;;;;;;;6.13;3.30;;;7.50;99.90;;;;;;6213006;23;20167;-46
2022/01/14 12:44:17;;;;;;;10.93;4.10;;;7.50;99.90;;;;;;6212719;23;20147;-47
2022/01/14 12:46:53;;;;;;;4.50;3.30;;;7.60;99.90;;;;;;6212698;23;20897;-47
2022/01/14 12:49:21;;;;;;;5.87;3.10;;;7.60;99.90;;;;;;6212530;23;20138;-47
2022/01/14 12:52:05;;;;;;;7.80;3.70;;;7.60;99.90;;;;;;6212948;23;20800;-46
2022/01/14 12:54:32;;;;;;;6.07;2.90;;;7.60;99.90;;;;;;6212429;23;20373;-47
2022/01/14 12:56:58;;;;;;;4.83;3.27;;;7.60;99.90;;;;;;6212526;23;20385;-47
2022/01/14 12:59:24;;;;;;;5.67;3.50;;;7.60;99.90;;;;;;6212329;23;20447;-46
2022/01/14 13:01:54;;;;;;;6.77;3.63;;;7.70;99.90;;;;;;6212819;23;20147;-47
2022/01/14 13:04:22;;;;;;;7.63;3.43;;;7.70;99.90;;;;;;6185684;23;20405;-47
2022/01/14 13:07:01;;;;;;;11.10;4.07;;;7.80;99.90;;;;;;6212544;23;20453;-46
2022/01/14 13:09:38;;;;;;;6.77;3.47;;;7.80;99.90;;;;;;6214515;23;20360;-47
2022/01/14 13:12:06;;;;;;;5.60;2.83;;;7.80;99.90;;;;;;6214519;23;20428;-47
2022/01/14 13:14:40;;;;;;;7.07;2.80;;;7.80;99.90;;;;;;6214344;23;20400;-47
2022/01/14 13:17:12;;;;;;;6.07;3.40;;;7.80;99.90;;;;;;6214383;23;20353;-47
2022/01/14 13:19:39;;;;;;;6.50;3.70;;;7.80;99.90;;;;;;6214053;23;20362;-46